createdAt,value
2022-11-15T17:09:11.294Z,97785.13
2022-11-15T17:11:38.150Z,97788.56
2022-11-15T17:14:04.920Z,97779.59
2022-11-15T17:16:32.148Z,97775.69
2022-11-15T17:18:58.929Z,97767.13
2022-11-15T17:21:33.388Z,97756.97
2022-11-15T17:24:00.699Z,97752.16
2022-11-15T17:26:30.719Z,97745.34
2022-11-15T17:29:01.521Z,97736.84
2022-11-15T17:31:30.757Z,97728.91
2022-11-15T17:33:57.669Z,97739.19
2022-11-15T17:36:24.474Z,97735.50
2022-11-15T17:38:57.958Z,97743.09
2022-11-15T17:41:26.247Z,97747.16
2022-11-15T17:43:57.931Z,97756.06
2022-11-15T17:46:24.954Z,97743.69
2022-11-15T17:48:51.798Z,97747.22
2022-11-15T17:51:19.349Z,97747.81
2022-11-15T17:53:48.512Z,97752.41
2022-11-15T17:56:17.579Z,97752.97
2022-11-15T17:58:48.348Z,97746.22
2022-11-15T18:01:20.310Z,97749.47
2022-11-15T18:03:47.730Z,97742.19
2022-11-15T18:06:14.995Z,97738.41
2022-11-15T18:08:43.998Z,97735.72
2022-11-15T18:11:14.808Z,97740.59
2022-11-15T18:13:49.432Z,97736.78
2022-11-15T18:16:21.831Z,97729.78
2022-11-15T18:18:48.948Z,97731.97
2022-11-15T18:21:18.728Z,97733.31
2022-11-15T18:23:46.396Z,97730.34
2022-11-15T18:26:15.466Z,97723.59
2022-11-15T18:28:44.234Z,97727.66
2022-11-15T18:31:14.785Z,97732.22
2022-11-15T18:33:43.372Z,97724.97
2022-11-15T18:36:12.586Z,97730.63
2022-11-15T18:38:39.775Z,97730.88
2022-11-15T18:41:08.691Z,97733.00
2022-11-15T18:43:36.118Z,97721.13
2022-11-15T18:46:04.706Z,97723.84
2022-11-15T18:48:32.097Z,97723.31
2022-11-15T18:51:05.437Z,97726.25
2022-11-15T18:53:34.031Z,97722.75
2022-11-15T18:56:02.200Z,97715.19
2022-11-15T18:58:30.933Z,97718.44
2022-11-15T19:01:01.902Z,97717.88
2022-11-15T19:03:31.680Z,97714.63
2022-11-15T19:06:03.561Z,97726.78
2022-11-15T19:08:34.308Z,97714.34
2022-11-15T19:11:06.820Z,97710.25
2022-11-15T19:13:34.697Z,97709.72
2022-11-15T19:16:03.492Z,97700.81
2022-11-15T19:18:31.295Z,97691.09
2022-11-15T19:21:04.227Z,97700.53
2022-11-15T19:23:33.645Z,97690.84
2022-11-15T19:26:02.198Z,97686.50
2022-11-15T19:28:29.996Z,97696.50
2022-11-15T19:31:03.548Z,97682.44
2022-11-15T19:33:30.993Z,97680.56
2022-11-15T19:36:01.219Z,97679.22
2022-11-15T19:38:30.664Z,97670.56
2022-11-15T19:40:58.955Z,97668.13
2022-11-15T19:43:25.851Z,97665.44
2022-11-15T19:45:59.436Z,97661.94
2022-11-15T19:48:30.139Z,97664.91
2022-11-15T19:51:01.616Z,97662.47
2022-11-15T19:53:34.618Z,97660.03
2022-11-15T19:56:05.355Z,97664.06
2022-11-15T19:58:33.901Z,97650.84
2022-11-15T20:01:03.013Z,97654.38
2022-11-15T20:03:30.222Z,97652.75
2022-11-15T20:06:01.980Z,97660.03
2022-11-15T20:08:30.774Z,97649.50
2022-11-15T20:10:59.147Z,97660.28
2022-11-15T20:13:27.297Z,97656.25
2022-11-15T20:15:54.735Z,97644.09
2022-11-15T20:18:22.607Z,97648.41
2022-11-15T20:20:50.021Z,97645.72
2022-11-15T20:23:17.914Z,97644.09
2022-11-15T20:25:47.000Z,97646.25
2022-11-15T20:28:16.668Z,97645.72
2022-11-15T20:30:45.071Z,97638.69
2022-11-15T20:33:12.068Z,97643.28
2022-11-15T20:35:38.843Z,97638.97
2022-11-15T20:38:06.806Z,97639.22
2022-11-15T20:40:33.863Z,97638.16
2022-11-15T20:43:02.593Z,97632.50
2022-11-15T20:45:29.660Z,97625.75
2022-11-15T20:47:56.902Z,97631.13
2022-11-15T20:50:41.450Z,97634.91
2022-11-15T20:53:10.043Z,97627.63
2022-11-15T20:55:40.170Z,97627.88
2022-11-15T20:58:08.655Z,97623.84
2022-11-15T21:00:36.984Z,97619.53
2022-11-15T21:03:06.847Z,97614.97
2022-11-15T21:05:34.382Z,97616.00
2022-11-15T21:08:01.485Z,97608.22
2022-11-15T21:10:47.023Z,97605.53
2022-11-15T21:13:15.237Z,97610.34
2022-11-15T21:15:42.045Z,97608.22
2022-11-15T21:18:08.964Z,97610.34
2022-11-15T21:20:36.024Z,97606.84
2022-11-15T21:23:03.442Z,97599.84
2022-11-15T21:25:30.288Z,97597.41
2022-11-15T21:27:57.145Z,97592.81
2022-11-15T21:30:25.418Z,97602.78
2022-11-15T21:32:52.266Z,97603.59
2022-11-15T21:35:19.070Z,97601.19
2022-11-15T21:37:46.202Z,97600.09
2022-11-15T21:40:13.226Z,97599.56
2022-11-15T21:42:40.148Z,97605.75
2022-11-15T21:45:08.130Z,97606.56
2022-11-15T21:47:36.329Z,97599.56
2022-11-15T21:50:03.245Z,97600.63
2022-11-15T21:52:30.085Z,97603.34
2022-11-15T21:54:56.872Z,97597.94
2022-11-15T21:57:23.735Z,97600.63
2022-11-15T22:00:09.131Z,97600.09
2022-11-15T22:02:37.373Z,97600.09
2022-11-15T22:05:04.691Z,97590.38
2022-11-15T22:07:31.605Z,97589.31
2022-11-15T22:09:58.880Z,97583.91
2022-11-15T22:12:29.566Z,97582.31
2022-11-15T22:14:57.166Z,97589.56
2022-11-15T22:17:24.675Z,97586.88
2022-11-15T22:19:53.168Z,97582.31
2022-11-15T22:22:20.140Z,97588.22
2022-11-15T22:24:46.990Z,97590.91
2022-11-15T22:27:13.883Z,97578.53
2022-11-15T22:29:40.788Z,97584.75
2022-11-15T22:32:07.680Z,97573.69
2022-11-15T22:34:34.529Z,97580.13
2022-11-15T22:37:19.832Z,97584.47
2022-11-15T22:39:47.728Z,97579.09
2022-11-15T22:42:16.359Z,97585.00
2022-11-15T22:44:46.342Z,97575.84
2022-11-15T22:47:13.229Z,97581.22
2022-11-15T22:49:40.184Z,97582.03
2022-11-15T22:52:08.739Z,97577.44
2022-11-15T22:54:35.620Z,97582.84
2022-11-15T22:57:04.134Z,97579.59
2022-11-15T22:59:31.008Z,97578.00
2022-11-15T23:01:57.892Z,97585.00
2022-11-15T23:04:24.784Z,97573.41
2022-11-15T23:06:51.705Z,97575.56
2022-11-15T23:09:19.940Z,97582.81
2022-11-15T23:12:05.168Z,97579.31
2022-11-15T23:14:32.098Z,97586.59
2022-11-15T23:16:59.268Z,97590.09
2022-11-15T23:19:26.184Z,97594.69
2022-11-15T23:22:11.438Z,97592.22
2022-11-15T23:24:39.798Z,97608.63
2022-11-15T23:27:07.816Z,97607.03
2022-11-15T23:29:56.757Z,97625.88
2022-11-15T23:32:42.332Z,97632.34
2022-11-15T23:35:09.475Z,97636.66
2022-11-15T23:37:36.544Z,97639.63
2022-11-15T23:40:06.342Z,97636.09
2022-11-15T23:42:33.427Z,97637.75
2022-11-15T23:45:00.403Z,97640.44
2022-11-15T23:47:27.416Z,97640.97
2022-11-15T23:49:54.465Z,97636.41
2022-11-15T23:52:23.136Z,97644.75
2022-11-15T23:54:50.142Z,97645.25
2022-11-15T23:57:18.474Z,97646.59
2022-11-15T23:59:45.309Z,97644.16
